sensor_id;sensor_type;location;lat;lon;timestamp;P1;durP1;ratioP1;P2;durP2;ratioP2
14320;SDS011;7244;47.364;8.464;2024-01-11T00:02:02;46;;;19;;
14320;SDS011;7244;47.364;8.464;2024-01-11T00:17:01;41;;;20;;
14320;SDS011;7244;47.364;8.464;2024-01-11T00:32:02;41;;;20;;
14320;SDS011;7244;47.364;8.464;2024-01-11T00:47:02;41;;;19;;
14320;SDS011;7244;47.364;8.464;2024-01-11T01:02:02;41;;;20;;
14320;SDS011;7244;47.364;8.464;2024-01-11T01:17:02;41;;;19;;
14320;SDS011;7244;47.364;8.464;2024-01-11T01:32:01;49;;;20;;
14320;SDS011;7244;47.364;8.464;2024-01-11T01:47:01;41;;;19;;
14320;SDS011;7244;47.364;8.464;2024-01-11T02:02:01;44;;;22;;
14320;SDS011;7244;47.364;8.464;2024-01-11T02:17:01;49;;;22;;
14320;SDS011;7244;47.364;8.464;2024-01-11T02:32:02;45;;;22;;
14320;SDS011;7244;47.364;8.464;2024-01-11T02:47:01;45;;;22;;
14320;SDS011;7244;47.364;8.464;2024-01-11T03:02:02;42;;;20;;
14320;SDS011;7244;47.364;8.464;2024-01-11T03:17:01;50;;;22;;
14320;SDS011;7244;47.364;8.464;2024-01-11T03:32:01;45;;;20;;
14320;SDS011;7244;47.364;8.464;2024-01-11T03:47:02;40;;;20;;
14320;SDS011;7244;47.364;8.464;2024-01-11T04:02:02;40;;;20;;
14320;SDS011;7244;47.364;8.464;2024-01-11T04:17:02;41;;;20;;
14320;SDS011;7244;47.364;8.464;2024-01-11T04:32:02;41;;;20;;
14320;SDS011;7244;47.364;8.464;2024-01-11T04:47:02;40;;;20;;
14320;SDS011;7244;47.364;8.464;2024-01-11T05:02:02;40;;;20;;
14320;SDS011;7244;47.364;8.464;2024-01-11T05:17:01;39;;;20;;
14320;SDS011;7244;47.364;8.464;2024-01-11T05:32:02;41;;;20;;
14320;SDS011;7244;47.364;8.464;2024-01-11T05:47:02;41;;;20;;
14320;SDS011;7244;47.364;8.464;2024-01-11T06:02:02;44;;;20;;
14320;SDS011;7244;47.364;8.464;2024-01-11T06:17:01;38;;;19;;
14320;SDS011;7244;47.364;8.464;2024-01-11T06:32:02;39;;;18;;
14320;SDS011;7244;47.364;8.464;2024-01-11T06:47:02;40;;;19;;
14320;SDS011;7244;47.364;8.464;2024-01-11T07:02:01;46;;;21;;
14320;SDS011;7244;47.364;8.464;2024-01-11T07:17:02;46;;;21;;
14320;SDS011;7244;47.364;8.464;2024-01-11T07:32:02;38;;;19;;
14320;SDS011;7244;47.364;8.464;2024-01-11T07:47:02;38;;;18;;
14320;SDS011;7244;47.364;8.464;2024-01-11T08:02:01;39;;;20;;
14320;SDS011;7244;47.364;8.464;2024-01-11T08:17:01;41;;;19;;
14320;SDS011;7244;47.364;8.464;2024-01-11T08:32:01;39;;;19;;
14320;SDS011;7244;47.364;8.464;2024-01-11T08:47:02;44;;;21;;
14320;SDS011;7244;47.364;8.464;2024-01-11T09:02:01;53;;;25;;
14320;SDS011;7244;47.364;8.464;2024-01-11T09:17:02;45;;;23;;
14320;SDS011;7244;47.364;8.464;2024-01-11T09:32:02;46;;;22;;
14320;SDS011;7244;47.364;8.464;2024-01-11T09:47:01;51;;;23;;
14320;SDS011;7244;47.364;8.464;2024-01-11T10:02:02;54;;;26;;
14320;SDS011;7244;47.364;8.464;2024-01-11T10:17:02;56;;;28;;
14320;SDS011;7244;47.364;8.464;2024-01-11T10:32:03;56;;;28;;
14320;SDS011;7244;47.364;8.464;2024-01-11T10:47:02;59;;;26;;
14320;SDS011;7244;47.364;8.464;2024-01-11T10:48:02;59;;;26;;
14320;SDS011;7244;47.364;8.464;2024-01-11T10:49:02;57;;;28;;
14320;SDS011;7244;47.364;8.464;2024-01-11T10:50:02;57;;;28;;
14320;SDS011;7244;47.364;8.464;2024-01-11T10:51:02;57;;;28;;
14320;SDS011;7244;47.364;8.464;2024-01-11T10:52:02;57;;;28;;
14320;SDS011;7244;47.364;8.464;2024-01-11T10:53:02;57;;;28;;
14320;SDS011;7244;47.364;8.464;2024-01-11T10:54:01;57;;;28;;
14320;SDS011;7244;47.364;8.464;2024-01-11T10:55:01;57;;;28;;
14320;SDS011;7244;47.364;8.464;2024-01-11T10:56:02;57;;;28;;
14320;SDS011;7244;47.364;8.464;2024-01-11T10:57:01;57;;;28;;
14320;SDS011;7244;47.364;8.464;2024-01-11T10:58:01;57;;;28;;
14320;SDS011;7244;47.364;8.464;2024-01-11T10:59:01;57;;;28;;
14320;SDS011;7244;47.364;8.464;2024-01-11T11:00:01;57;;;28;;
14320;SDS011;7244;47.364;8.464;2024-01-11T11:01:02;57;;;28;;
14320;SDS011;7244;47.364;8.464;2024-01-11T11:02:05;57;;;28;;
14320;SDS011;7244;47.364;8.464;2024-01-11T11:03:02;57;;;28;;
14320;SDS011;7244;47.364;8.464;2024-01-11T11:04:01;57;;;28;;
14320;SDS011;7244;47.364;8.464;2024-01-11T11:05:01;53;;;27;;
14320;SDS011;7244;47.364;8.464;2024-01-11T11:06:02;53;;;27;;
14320;SDS011;7244;47.364;8.464;2024-01-11T11:07:02;53;;;27;;
14320;SDS011;7244;47.364;8.464;2024-01-11T11:08:01;53;;;27;;
14320;SDS011;7244;47.364;8.464;2024-01-11T11:09:02;53;;;27;;
14320;SDS011;7244;47.364;8.464;2024-01-11T11:10:02;53;;;27;;
14320;SDS011;7244;47.364;8.464;2024-01-11T11:11:03;53;;;27;;
14320;SDS011;7244;47.364;8.464;2024-01-11T11:12:02;53;;;27;;
14320;SDS011;7244;47.364;8.464;2024-01-11T11:13:02;53;;;27;;
14320;SDS011;7244;47.364;8.464;2024-01-11T11:14:06;53;;;27;;
14320;SDS011;7244;47.364;8.464;2024-01-11T11:15:02;53;;;27;;
14320;SDS011;7244;47.364;8.464;2024-01-11T11:16:02;53;;;27;;
14320;SDS011;7244;47.364;8.464;2024-01-11T11:32:01;55;;;28;;
14320;SDS011;7244;47.364;8.464;2024-01-11T11:47:18;61;;;28;;
14320;SDS011;7244;47.364;8.464;2024-01-11T12:02:01;64;;;30;;
14320;SDS011;7244;47.364;8.464;2024-01-11T12:17:01;68;;;32;;
14320;SDS011;7244;47.364;8.464;2024-01-11T12:32:01;70;;;32;;
14320;SDS011;7244;47.364;8.464;2024-01-11T12:47:01;63;;;29;;
14320;SDS011;7244;47.364;8.464;2024-01-11T13:02:01;52;;;24;;
14320;SDS011;7244;47.364;8.464;2024-01-11T13:17:01;51;;;23;;
14320;SDS011;7244;47.364;8.464;2024-01-11T13:32:01;54;;;24;;
14320;SDS011;7244;47.364;8.464;2024-01-11T13:47:01;54;;;24;;
14320;SDS011;7244;47.364;8.464;2024-01-11T14:02:01;43;;;21;;
14320;SDS011;7244;47.364;8.464;2024-01-11T14:17:01;41;;;20;;
14320;SDS011;7244;47.364;8.464;2024-01-11T14:32:02;43;;;21;;
14320;SDS011;7244;47.364;8.464;2024-01-11T14:47:01;30;;;15;;
14320;SDS011;7244;47.364;8.464;2024-01-11T15:02:02;37;;;18;;
14320;SDS011;7244;47.364;8.464;2024-01-11T15:17:02;38;;;17;;
14320;SDS011;7244;47.364;8.464;2024-01-11T15:32:02;38;;;17;;
14320;SDS011;7244;47.364;8.464;2024-01-11T15:47:01;36;;;17;;
14320;SDS011;7244;47.364;8.464;2024-01-11T16:02:02;38;;;17;;
14320;SDS011;7244;47.364;8.464;2024-01-11T16:17:02;37;;;17;;
14320;SDS011;7244;47.364;8.464;2024-01-11T16:32:02;47;;;17;;
14320;SDS011;7244;47.364;8.464;2024-01-11T16:47:02;33;;;17;;
14320;SDS011;7244;47.364;8.464;2024-01-11T17:02:01;35;;;17;;
14320;SDS011;7244;47.364;8.464;2024-01-11T17:17:02;35;;;17;;
14320;SDS011;7244;47.364;8.464;2024-01-11T17:32:02;34;;;15;;
14320;SDS011;7244;47.364;8.464;2024-01-11T17:47:01;35;;;15;;
14320;SDS011;7244;47.364;8.464;2024-01-11T18:02:02;28;;;14;;
14320;SDS011;7244;47.364;8.464;2024-01-11T18:17:02;31;;;17;;
14320;SDS011;7244;47.364;8.464;2024-01-11T18:32:02;31;;;16;;
14320;SDS011;7244;47.364;8.464;2024-01-11T18:47:02;27;;;14;;
14320;SDS011;7244;47.364;8.464;2024-01-11T19:02:02;26;;;14;;
14320;SDS011;7244;47.364;8.464;2024-01-11T19:17:02;23;;;14;;
14320;SDS011;7244;47.364;8.464;2024-01-11T19:32:02;24;;;14;;
14320;SDS011;7244;47.364;8.464;2024-01-11T19:47:02;24;;;13;;
14320;SDS011;7244;47.364;8.464;2024-01-11T20:02:02;21;;;13;;
14320;SDS011;7244;47.364;8.464;2024-01-11T20:17:02;30;;;16;;
14320;SDS011;7244;47.364;8.464;2024-01-11T20:32:02;30;;;16;;
14320;SDS011;7244;47.364;8.464;2024-01-11T20:47:02;28;;;14;;
14320;SDS011;7244;47.364;8.464;2024-01-11T21:02:02;30;;;16;;
14320;SDS011;7244;47.364;8.464;2024-01-11T21:17:02;27;;;15;;
14320;SDS011;7244;47.364;8.464;2024-01-11T21:32:02;33;;;15;;
14320;SDS011;7244;47.364;8.464;2024-01-11T21:47:02;32;;;17;;
14320;SDS011;7244;47.364;8.464;2024-01-11T22:02:02;36;;;18;;
14320;SDS011;7244;47.364;8.464;2024-01-11T22:17:02;41;;;19;;
14320;SDS011;7244;47.364;8.464;2024-01-11T22:32:02;42;;;20;;
14320;SDS011;7244;47.364;8.464;2024-01-11T22:47:02;47;;;21;;
14320;SDS011;7244;47.364;8.464;2024-01-11T23:02:02;41;;;21;;
14320;SDS011;7244;47.364;8.464;2024-01-11T23:17:02;42;;;20;;
14320;SDS011;7244;47.364;8.464;2024-01-11T23:32:02;42;;;19;;
14320;SDS011;7244;47.364;8.464;2024-01-11T23:47:04;42;;;19;;
